createdAt,value
2023-03-02T00:01:08.546Z,116.10
2023-03-02T00:03:42.934Z,103.45
2023-03-02T00:06:13.772Z,103.28
2023-03-02T00:08:46.036Z,119.50
2023-03-02T00:11:19.425Z,117.05
2023-03-02T00:13:51.095Z,115.47
2023-03-02T00:16:21.979Z,96.53
2023-03-02T00:18:53.178Z,86.00
2023-03-02T00:23:56.231Z,93.93
2023-03-02T00:26:29.701Z,90.70
2023-03-02T00:29:00.832Z,94.93
2023-03-02T00:34:03.002Z,99.13
2023-03-02T00:39:05.244Z,103.93
2023-03-02T00:41:38.733Z,89.80
2023-03-02T00:44:11.440Z,93.65
2023-03-02T00:46:42.375Z,91.95
2023-03-02T00:49:13.808Z,94.63
2023-03-02T00:51:44.531Z,99.47
2023-03-02T00:54:16.556Z,106.25
2023-03-02T00:56:49.941Z,92.10
2023-03-02T00:59:30.665Z,83.07
2023-03-02T01:02:25.658Z,75.55
2023-03-02T01:04:57.986Z,84.72
2023-03-02T01:07:29.143Z,103.25
2023-03-02T01:10:00.291Z,86.50
2023-03-02T01:12:34.776Z,83.47
2023-03-02T01:15:06.251Z,103.45
2023-03-02T01:17:37.061Z,90.70
2023-03-02T01:20:10.041Z,76.80
2023-03-02T01:22:40.949Z,101.28
2023-03-02T01:25:13.454Z,91.95
2023-03-02T01:27:46.932Z,87.50
2023-03-02T01:30:18.609Z,93.35
2023-03-02T01:32:49.832Z,81.32
2023-03-02T01:35:21.625Z,80.78
2023-03-02T01:37:52.471Z,88.93
2023-03-02T01:40:23.723Z,95.45
2023-03-02T01:46:02.468Z,76.72
2023-03-02T01:48:45.848Z,90.13
2023-03-02T01:51:24.328Z,82.50
2023-03-02T01:53:59.494Z,91.45
2023-03-02T01:56:34.845Z,77.90
2023-03-02T01:59:14.066Z,74.05
2023-03-02T02:01:47.993Z,82.28
2023-03-02T02:04:19.571Z,90.75
2023-03-02T02:06:54.109Z,71.82
2023-03-02T02:09:27.183Z,69.72
2023-03-02T02:11:59.518Z,77.63
2023-03-02T02:17:06.607Z,69.57
2023-03-02T02:20:07.349Z,67.43
2023-03-02T02:22:51.119Z,66.65
2023-03-02T02:25:34.031Z,67.03
2023-03-02T02:28:10.747Z,77.43
2023-03-02T02:30:44.221Z,73.05
2023-03-02T02:33:20.484Z,75.68
2023-03-02T02:35:52.524Z,79.32
2023-03-02T02:38:25.842Z,73.13
2023-03-02T02:40:59.327Z,69.55
2023-03-02T02:43:37.546Z,65.82
2023-03-02T02:46:10.091Z,80.32
2023-03-02T02:48:41.998Z,73.78
2023-03-02T02:51:17.766Z,69.20
2023-03-02T02:53:59.003Z,82.85
2023-03-02T02:56:35.737Z,68.63
2023-03-02T02:59:16.880Z,68.85
2023-03-02T03:01:49.051Z,74.10
2023-03-02T03:04:25.116Z,72.32
2023-03-02T03:06:57.623Z,71.53
2023-03-02T03:09:29.631Z,72.90
2023-03-02T03:12:04.297Z,67.18
2023-03-02T03:14:42.413Z,63.83
2023-03-02T03:17:15.430Z,57.55
2023-03-02T03:19:54.213Z,55.45
2023-03-02T03:22:24.969Z,59.17
2023-03-02T03:24:56.866Z,59.90
2023-03-02T03:27:27.643Z,58.92
2023-03-02T03:30:02.157Z,65.03
2023-03-02T03:32:37.858Z,59.30
2023-03-02T03:35:12.541Z,67.30
2023-03-02T03:37:45.929Z,65.65
2023-03-02T03:40:18.954Z,60.97
2023-03-02T03:42:50.882Z,63.40
2023-03-02T03:45:25.257Z,61.38
2023-03-02T03:47:56.119Z,58.40
2023-03-02T03:50:27.544Z,65.82
2023-03-02T03:52:58.785Z,65.10
2023-03-02T03:55:32.660Z,55.60
2023-03-02T03:58:03.355Z,57.60
2023-03-02T04:00:37.193Z,72.18
2023-03-02T04:03:12.671Z,61.65
2023-03-02T04:05:44.284Z,64.72
2023-03-02T04:08:15.957Z,66.10
2023-03-02T04:10:47.573Z,63.03
2023-03-02T04:13:18.540Z,59.17
2023-03-02T04:15:52.339Z,70.03
2023-03-02T04:18:23.222Z,52.45
2023-03-02T04:20:54.635Z,75.93
2023-03-02T04:25:56.765Z,68.32
2023-03-02T04:28:27.610Z,74.97
2023-03-02T04:31:01.835Z,92.15
2023-03-02T04:33:33.169Z,109.53
2023-03-02T04:36:04.374Z,64.78
2023-03-02T04:38:35.433Z,82.30
2023-03-02T04:41:07.050Z,126.15
2023-03-02T04:43:38.043Z,93.78
2023-03-02T04:46:12.840Z,105.43
2023-03-02T04:48:43.619Z,104.18
2023-03-02T04:51:24.329Z,102.30
2023-03-02T04:53:55.575Z,100.68
2023-03-02T04:56:27.462Z,88.28
2023-03-02T04:58:59.150Z,83.65
2023-03-02T05:01:32.953Z,104.50
2023-03-02T05:04:04.709Z,93.70
2023-03-02T05:06:38.463Z,85.97
2023-03-02T05:09:09.287Z,71.40
2023-03-02T05:11:40.815Z,78.15
2023-03-02T05:14:14.624Z,70.30
2023-03-02T05:16:48.373Z,57.53
2023-03-02T05:19:20.086Z,77.43
2023-03-02T05:21:51.388Z,84.65
2023-03-02T05:24:22.395Z,90.63
2023-03-02T05:26:54.139Z,68.40
2023-03-02T05:29:24.927Z,74.47
2023-03-02T05:31:58.696Z,168.32
2023-03-02T05:34:32.227Z,98.05
2023-03-02T05:37:03.300Z,119.47
2023-03-02T05:39:36.916Z,90.55
2023-03-02T05:42:08.178Z,99.05
2023-03-02T05:47:13.018Z,121.65
2023-03-02T05:49:44.100Z,119.80
2023-03-02T05:52:15.303Z,160.82
2023-03-02T05:54:46.015Z,178.18
2023-03-02T05:57:17.099Z,158.48
2023-03-02T05:59:51.132Z,147.43
2023-03-02T06:02:24.919Z,176.85
2023-03-02T06:04:55.684Z,155.38
2023-03-02T06:07:27.557Z,137.98
2023-03-02T06:09:58.723Z,121.80
2023-03-02T06:12:30.421Z,117.07
2023-03-02T06:15:01.187Z,92.32
2023-03-02T06:17:34.998Z,116.97
2023-03-02T06:20:11.177Z,145.70
2023-03-02T06:22:45.527Z,93.43
2023-03-02T06:25:19.285Z,107.90
2023-03-02T06:27:51.845Z,89.50
2023-03-02T06:30:24.756Z,84.03
2023-03-02T06:33:00.181Z,69.65
2023-03-02T06:35:32.014Z,57.42
2023-03-02T06:38:03.091Z,50.05
2023-03-02T06:40:34.246Z,62.40
2023-03-02T06:43:05.371Z,57.25
2023-03-02T06:48:12.399Z,73.47
2023-03-02T06:50:43.166Z,62.83
2023-03-02T06:53:15.370Z,89.88
2023-03-02T06:55:46.375Z,41.10
2023-03-02T06:58:17.545Z,61.97
2023-03-02T07:00:48.912Z,48.17
2023-03-02T07:03:22.748Z,51.95
2023-03-02T07:05:53.867Z,46.17
2023-03-02T07:08:25.126Z,33.45
2023-03-02T07:10:56.190Z,24.08
2023-03-02T07:13:27.682Z,22.20
2023-03-02T07:16:00.988Z,24.92
2023-03-02T07:18:35.251Z,19.92
2023-03-02T07:21:09.989Z,18.92
2023-03-02T07:23:41.863Z,25.35
2023-03-02T07:26:13.827Z,27.45
2023-03-02T07:28:46.290Z,27.67
2023-03-02T07:31:18.334Z,31.35
2023-03-02T07:33:53.630Z,23.73
2023-03-02T07:36:26.532Z,21.48
2023-03-02T07:38:58.951Z,24.92
2023-03-02T07:41:31.555Z,27.38
2023-03-02T07:44:03.303Z,32.42
2023-03-02T07:46:35.396Z,28.55
2023-03-02T07:49:10.244Z,26.23
2023-03-02T07:51:41.345Z,24.70
2023-03-02T07:54:13.345Z,40.90
2023-03-02T07:56:44.807Z,51.30
2023-03-02T07:59:16.252Z,32.67
2023-03-02T08:01:47.202Z,27.10
2023-03-02T08:04:20.988Z,24.35
2023-03-02T08:06:51.956Z,22.02
2023-03-02T08:09:23.098Z,20.98
2023-03-02T08:11:53.790Z,20.75
2023-03-02T08:14:24.985Z,16.58
2023-03-02T08:19:29.357Z,34.60
2023-03-02T08:22:01.109Z,25.52
2023-03-02T08:24:32.438Z,286.27
2023-03-02T08:27:04.505Z,31.92
2023-03-02T08:29:36.193Z,28.98
2023-03-02T08:32:07.305Z,23.88
2023-03-02T08:34:41.472Z,23.80
2023-03-02T08:37:13.306Z,21.42
2023-03-02T08:39:44.851Z,36.00
2023-03-02T08:47:17.096Z,20.73
2023-03-02T08:49:51.430Z,22.70
2023-03-02T08:52:22.180Z,32.72
2023-03-02T08:54:53.520Z,32.45
2023-03-02T08:57:24.382Z,27.23
2023-03-02T08:59:55.634Z,39.45
2023-03-02T09:05:00.260Z,54.95
2023-03-02T09:07:31.278Z,27.98
2023-03-02T09:10:02.401Z,44.95
2023-03-02T09:15:04.082Z,26.55
2023-03-02T09:17:34.746Z,31.50
2023-03-02T09:20:09.987Z,37.53
2023-03-02T09:22:40.901Z,20.63
2023-03-02T09:25:12.460Z,38.75
2023-03-02T09:27:43.318Z,21.52
2023-03-02T09:30:16.699Z,18.15
2023-03-02T09:32:49.316Z,21.10
2023-03-02T09:35:23.152Z,32.60
2023-03-02T09:37:53.881Z,30.45
2023-03-02T09:40:27.504Z,22.10
2023-03-02T09:43:14.245Z,18.55
2023-03-02T09:45:59.875Z,21.88
2023-03-02T09:48:43.762Z,22.20
2023-03-02T09:51:35.998Z,39.80
2023-03-02T09:54:13.415Z,12.77
2023-03-02T09:56:47.780Z,28.13
2023-03-02T09:59:27.402Z,25.58
2023-03-02T10:02:04.157Z,21.65
2023-03-02T10:04:41.485Z,16.33
2023-03-02T10:07:19.668Z,19.13
2023-03-02T10:09:50.425Z,19.80
2023-03-02T10:12:48.177Z,32.72
2023-03-02T10:15:25.357Z,23.95
2023-03-02T10:18:03.901Z,21.60
2023-03-02T10:20:40.907Z,14.90
2023-03-02T10:23:39.325Z,24.40
2023-03-02T10:26:30.581Z,18.98
2023-03-02T10:29:09.625Z,11.38
2023-03-02T10:31:43.539Z,13.38
2023-03-02T10:34:15.128Z,17.13
2023-03-02T10:36:48.064Z,20.15
2023-03-02T10:39:22.992Z,13.15
2023-03-02T10:41:57.682Z,14.77
2023-03-02T10:44:32.787Z,12.80
2023-03-02T10:47:03.631Z,12.68
2023-03-02T10:49:37.081Z,10.25
2023-03-02T10:52:09.926Z,16.45
2023-03-02T10:54:44.270Z,25.98
2023-03-02T10:57:31.963Z,15.85
2023-03-02T11:00:06.132Z,315.08
2023-03-02T11:02:40.096Z,128.88
2023-03-02T11:05:30.372Z,70.90
2023-03-02T11:08:02.915Z,33.10
2023-03-02T11:10:38.274Z,14.77
2023-03-02T11:13:20.828Z,16.02
2023-03-02T11:15:55.160Z,51.42
2023-03-02T11:18:32.087Z,13.13
2023-03-02T11:21:06.772Z,17.08
2023-03-02T11:23:46.506Z,21.02
2023-03-02T11:26:26.263Z,64.53
2023-03-02T11:29:03.938Z,14.23
2023-03-02T11:31:43.696Z,10.35
2023-03-02T11:34:46.999Z,13.60
2023-03-02T11:37:21.885Z,248.15
2023-03-02T11:40:08.131Z,349.90
2023-03-02T11:42:44.586Z,30.67
2023-03-02T11:45:23.722Z,13.50
2023-03-02T11:48:03.324Z,16.10
2023-03-02T11:50:38.216Z,25.40
2023-03-02T11:53:14.918Z,24.02
2023-03-02T11:55:49.705Z,14.07
2023-03-02T11:58:25.455Z,16.17
2023-03-02T12:00:58.990Z,23.08
2023-03-02T12:03:43.046Z,20.05
2023-03-02T12:06:31.918Z,22.05
2023-03-02T12:09:31.489Z,11.68
2023-03-02T12:12:13.810Z,8.80
2023-03-02T12:14:48.026Z,18.88
2023-03-02T12:17:25.315Z,20.83
2023-03-02T12:19:57.968Z,33.58
2023-03-02T12:22:31.714Z,24.83
2023-03-02T12:25:07.901Z,8.18
2023-03-02T12:27:42.290Z,7.65
2023-03-02T12:30:30.562Z,8.00
2023-03-02T12:33:21.759Z,39.40
2023-03-02T12:35:57.409Z,10.80
2023-03-02T12:38:32.716Z,10.27
2023-03-02T12:41:25.394Z,12.90
2023-03-02T12:44:10.340Z,14.32
2023-03-02T12:46:48.898Z,17.00
2023-03-02T12:49:47.009Z,11.23
2023-03-02T12:52:30.886Z,15.07
2023-03-02T12:55:08.688Z,18.83
2023-03-02T12:57:41.654Z,24.85
2023-03-02T13:00:20.746Z,8.82
2023-03-02T13:02:56.734Z,13.85
2023-03-02T13:05:30.275Z,26.45
2023-03-02T13:08:05.099Z,14.48
2023-03-02T13:10:40.531Z,14.23
2023-03-02T13:13:19.549Z,23.88
2023-03-02T13:15:56.530Z,29.80
2023-03-02T13:18:34.002Z,36.85
2023-03-02T13:21:07.132Z,24.33
2023-03-02T13:23:38.300Z,9.63
2023-03-02T13:26:09.441Z,9.00
2023-03-02T13:28:42.117Z,9.13
2023-03-02T13:31:23.717Z,6.80
2023-03-02T13:33:59.277Z,10.75
2023-03-02T13:36:32.634Z,10.45
2023-03-02T13:39:07.232Z,8.13
2023-03-02T13:41:40.894Z,22.02
2023-03-02T13:44:21.689Z,11.43
2023-03-02T13:46:52.478Z,39.58
2023-03-02T13:49:33.416Z,9.32
2023-03-02T13:52:08.393Z,14.32
2023-03-02T13:54:40.735Z,15.77
2023-03-02T13:57:19.896Z,8.60
2023-03-02T13:59:51.283Z,12.82
2023-03-02T14:02:27.484Z,8.98
2023-03-02T14:05:01.734Z,18.15
2023-03-02T14:07:32.540Z,14.07
2023-03-02T14:10:03.912Z,22.25
2023-03-02T14:12:35.982Z,23.40
2023-03-02T14:15:08.405Z,21.45
2023-03-02T14:17:39.309Z,21.83
2023-03-02T14:20:15.801Z,37.67
2023-03-02T14:22:46.697Z,69.90
2023-03-02T14:25:19.716Z,63.40
2023-03-02T14:27:50.574Z,28.42
2023-03-02T14:30:23.775Z,16.88
2023-03-02T14:32:55.179Z,22.50
2023-03-02T14:35:29.201Z,23.10
2023-03-02T14:38:00.126Z,20.20
2023-03-02T14:40:31.649Z,21.05
2023-03-02T14:43:02.464Z,21.13
2023-03-02T14:45:34.198Z,16.50
2023-03-02T14:48:05.977Z,19.17
2023-03-02T14:50:43.252Z,20.20
2023-03-02T14:53:18.553Z,25.40
2023-03-02T14:55:50.574Z,34.85
2023-03-02T14:58:23.398Z,38.63
2023-03-02T15:00:54.471Z,26.83
2023-03-02T15:03:25.865Z,41.90
2023-03-02T15:06:01.752Z,36.88
2023-03-02T15:08:33.089Z,27.48
2023-03-02T15:11:04.273Z,46.85
2023-03-02T15:13:35.033Z,54.25
2023-03-02T15:16:06.282Z,52.85
2023-03-02T15:18:37.305Z,47.38
2023-03-02T15:21:15.277Z,56.75
2023-03-02T15:23:46.257Z,62.22
2023-03-02T15:26:17.846Z,192.30
2023-03-02T15:28:48.645Z,158.27
2023-03-02T15:31:21.494Z,338.77
2023-03-02T15:33:52.441Z,108.47
2023-03-02T15:36:26.674Z,94.65
2023-03-02T15:38:57.525Z,79.20
2023-03-02T15:41:29.333Z,81.97
2023-03-02T15:44:00.193Z,167.02
2023-03-02T15:46:31.544Z,252.20
2023-03-02T15:51:35.780Z,279.10
2023-03-02T15:54:06.809Z,329.88
2023-03-02T15:56:44.017Z,322.88
2023-03-02T15:59:15.305Z,238.95
2023-03-02T16:01:46.571Z,230.85
2023-03-02T16:06:50.754Z,195.95
2023-03-02T16:09:22.109Z,225.23
2023-03-02T16:11:53.223Z,192.48
2023-03-02T16:14:24.019Z,131.63
2023-03-02T16:16:55.292Z,144.00
2023-03-02T16:19:26.212Z,149.00
2023-03-02T16:22:00.756Z,116.70
2023-03-02T16:24:31.447Z,138.68
2023-03-02T16:27:02.525Z,127.13
2023-03-02T16:29:33.586Z,106.22
2023-03-02T16:32:06.668Z,111.45
2023-03-02T16:34:38.090Z,158.27
2023-03-02T16:37:14.331Z,170.50
2023-03-02T16:39:45.223Z,198.82
2023-03-02T16:42:16.500Z,197.18
2023-03-02T16:47:19.655Z,193.70
2023-03-02T16:52:23.781Z,377.80
2023-03-02T16:54:54.647Z,459.63
2023-03-02T16:57:26.110Z,378.70
2023-03-02T16:59:56.867Z,372.83
2023-03-02T17:02:29.457Z,366.10
2023-03-02T17:05:00.393Z,272.27
2023-03-02T17:07:34.281Z,306.83
2023-03-02T17:10:05.392Z,284.48
2023-03-02T17:12:36.632Z,294.10
2023-03-02T17:17:39.319Z,309.33
2023-03-02T17:20:13.109Z,346.95
2023-03-02T17:22:47.139Z,381.08
2023-03-02T17:25:19.518Z,344.08
2023-03-02T17:27:50.906Z,363.05
2023-03-02T17:30:22.646Z,380.45
2023-03-02T17:32:53.831Z,368.13
2023-03-02T17:35:24.857Z,356.77
2023-03-02T17:37:58.730Z,363.27
2023-03-02T17:40:29.781Z,363.85
2023-03-02T17:43:01.137Z,387.10
2023-03-02T17:45:33.066Z,354.27
2023-03-02T17:48:04.308Z,300.67
2023-03-02T17:53:08.637Z,229.40
2023-03-02T17:55:39.710Z,204.77
2023-03-02T17:58:11.067Z,173.52
2023-03-02T18:03:13.245Z,151.90
2023-03-02T18:08:17.414Z,125.45
2023-03-02T18:10:48.656Z,134.88
2023-03-02T18:13:20.348Z,111.50
2023-03-02T18:15:51.397Z,113.97
2023-03-02T18:18:22.495Z,127.18
2023-03-02T18:20:53.403Z,112.20
2023-03-02T18:23:27.188Z,106.65
2023-03-02T18:25:57.971Z,102.15
2023-03-02T18:28:29.319Z,119.38
2023-03-02T18:33:31.675Z,115.30
2023-03-02T18:38:40.631Z,96.35
2023-03-02T18:41:12.572Z,106.05
2023-03-02T18:43:44.838Z,96.82
2023-03-02T18:46:24.274Z,98.88
2023-03-02T18:48:56.728Z,84.53
2023-03-02T18:51:28.263Z,85.78
2023-03-02T18:54:02.069Z,67.45
2023-03-02T18:56:32.961Z,101.82
2023-03-02T18:59:05.939Z,79.13
2023-03-02T19:01:37.278Z,84.50
2023-03-02T19:04:09.302Z,87.57
2023-03-02T19:06:40.450Z,56.40
2023-03-02T19:09:14.953Z,59.20
2023-03-02T19:11:45.692Z,88.45
2023-03-02T19:14:16.799Z,88.60
2023-03-02T19:16:48.351Z,91.25
2023-03-02T19:19:19.614Z,87.50
2023-03-02T19:24:23.724Z,112.28
2023-03-02T19:26:54.468Z,110.97
2023-03-02T19:29:25.580Z,150.10
2023-03-02T19:31:56.552Z,138.13
2023-03-02T19:34:27.966Z,129.98
2023-03-02T19:36:58.773Z,113.72
2023-03-02T19:39:33.108Z,135.02
2023-03-02T19:42:03.929Z,124.93
2023-03-02T19:44:35.632Z,104.25
2023-03-02T19:47:08.972Z,82.43
2023-03-02T19:49:42.944Z,84.00
2023-03-02T19:52:14.768Z,80.88
2023-03-02T19:54:48.555Z,102.63
2023-03-02T19:57:19.723Z,93.95
2023-03-02T19:59:51.409Z,90.22
2023-03-02T20:02:22.835Z,87.00
2023-03-02T20:04:54.099Z,78.35
2023-03-02T20:09:58.447Z,74.93
2023-03-02T20:12:29.544Z,77.90
2023-03-02T20:15:01.015Z,90.40
2023-03-02T20:17:32.212Z,79.68
2023-03-02T20:20:03.881Z,78.82
2023-03-02T20:22:35.041Z,78.47
2023-03-02T20:25:13.107Z,128.52
2023-03-02T20:27:44.006Z,131.18
2023-03-02T20:30:19.143Z,111.20
2023-03-02T20:32:49.923Z,90.03
2023-03-02T20:35:21.528Z,92.13
2023-03-02T20:37:52.383Z,82.68
2023-03-02T20:40:30.522Z,85.13
2023-03-02T20:43:01.466Z,85.20
2023-03-02T20:45:32.994Z,80.75
2023-03-02T20:48:05.667Z,76.13
2023-03-02T20:50:38.152Z,74.65
2023-03-02T20:53:12.098Z,83.03
2023-03-02T20:55:46.359Z,123.10
2023-03-02T20:58:17.326Z,94.18
2023-03-02T21:00:49.086Z,90.20
2023-03-02T21:03:20.490Z,71.78
2023-03-02T21:05:52.481Z,68.40
2023-03-02T21:08:23.641Z,88.22
2023-03-02T21:10:57.598Z,115.25
2023-03-02T21:13:28.885Z,109.72
2023-03-02T21:16:00.738Z,105.00
2023-03-02T21:18:32.871Z,89.40
2023-03-02T21:21:04.877Z,84.95
2023-03-02T21:23:36.006Z,88.47
2023-03-02T21:26:10.160Z,92.75
2023-03-02T21:28:44.259Z,94.40
2023-03-02T21:31:18.470Z,98.28
2023-03-02T21:33:49.909Z,93.82
2023-03-02T21:36:23.128Z,82.28
2023-03-02T21:38:56.273Z,78.03
2023-03-02T21:41:30.775Z,81.55
2023-03-02T21:44:01.750Z,81.35
2023-03-02T21:46:32.954Z,87.72
2023-03-02T21:51:35.257Z,98.88
2023-03-02T21:54:06.359Z,91.43
2023-03-02T21:56:40.734Z,84.60
2023-03-02T21:59:11.662Z,87.45
2023-03-02T22:01:43.115Z,100.15
2023-03-02T22:04:14.323Z,125.40
2023-03-02T22:06:45.404Z,107.32
2023-03-02T22:09:16.172Z,96.55
2023-03-02T22:11:51.516Z,86.43
2023-03-02T22:14:22.973Z,77.03
2023-03-02T22:16:54.219Z,87.65
2023-03-02T22:19:28.836Z,103.22
2023-03-02T22:22:03.359Z,162.02
2023-03-02T22:24:36.603Z,141.68
2023-03-02T22:27:26.113Z,122.82
2023-03-02T22:29:59.419Z,90.05
2023-03-02T22:32:32.551Z,100.45
2023-03-02T22:35:17.005Z,104.28
2023-03-02T22:37:48.466Z,94.00
2023-03-02T22:40:27.837Z,120.20
2023-03-02T22:43:15.023Z,119.82
2023-03-02T22:45:46.243Z,104.13
2023-03-02T22:48:19.827Z,87.88
2023-03-02T22:50:52.306Z,84.50
2023-03-02T22:53:31.899Z,84.45
2023-03-02T22:56:04.469Z,91.63
2023-03-02T22:58:48.102Z,133.95
2023-03-02T23:01:26.664Z,110.00
2023-03-02T23:04:08.661Z,97.93
2023-03-02T23:06:45.328Z,80.68
2023-03-02T23:09:21.137Z,69.47
2023-03-02T23:11:57.003Z,79.75
2023-03-02T23:14:32.895Z,93.13
2023-03-02T23:17:11.198Z,165.68
2023-03-02T23:19:42.473Z,126.07
2023-03-02T23:24:44.898Z,101.45
2023-03-02T23:27:16.355Z,90.43
2023-03-02T23:29:50.704Z,88.10
2023-03-02T23:32:21.798Z,95.22
2023-03-02T23:34:53.703Z,123.22
2023-03-02T23:37:24.716Z,189.82
2023-03-02T23:39:55.819Z,132.85
2023-03-02T23:42:26.564Z,103.40
2023-03-02T23:45:00.312Z,104.00
2023-03-02T23:47:31.514Z,101.13
2023-03-02T23:50:02.630Z,119.43
2023-03-02T23:55:04.265Z,111.10
2023-03-02T23:57:35.286Z,116.53
